• Join FlightAware (Why Join?)
  • Login
  • US Flag 
01:17PM EDT


 

Airport Tracker/Info


-or-


 

Live Flight TrackerFlight Track Log ✈ VH-LBZ ✈ 15-Nov-2013 ✈ YBRM / BME - YHLC / HCQ

Flight Track Log - Related Links

Times and Time Zones

All times are in EST time to prevent confusion due to time zone crossing. See the VH-LBZ flight status page for this flight to view local times or setup timezone preferences in your user account.

Time Position Orientation Groundspeed Altitude Reporting Facility
EST Latitude Longitude Course Direction KTS MPH feet Rate Location/Type
10:30PM -17.9540 122.3338 246° West 27,000  Level Aus ATC (Calculated)
10:31PM -17.9570 122.3267 95° East 27,000  Level Aus ATC (Calculated)
10:33PM -17.9684 122.4787 95° East  Level FlightAware Approximate
10:33PM -17.9718 122.5248 65° Northeast 27,000  Level Aus ATC (Calculated)
10:34PM -17.9691 122.5309 95° East 27,000  Level Aus ATC (Calculated)
10:34PM -17.9766 122.6295 95° East 27,000  Level Aus ATC (Calculated)
10:36PM -17.9847 122.7367 95° East  Level FlightAware Approximate
10:37PM -17.9905 122.8142 95° East  Level FlightAware Approximate
10:37PM -17.9914 122.8266 95° East 27,000  Level Aus ATC (Calculated)
10:38PM -17.9963 122.8917 94° East  Level FlightAware Approximate
10:39PM -17.9989 122.9274 94° East  Level FlightAware Approximate
10:40PM -18.0047 123.0049 94° East  Level FlightAware Approximate
10:41PM -18.0104 123.0824 94° East  Level FlightAware Approximate
10:41PM -18.0148 123.1191 92° East 27,000  Level Aus ATC (Calculated)
10:42PM -18.0161 123.1599 94° East  Level FlightAware Approximate
10:43PM -18.0215 123.2147 94° East  Level FlightAware Approximate
10:44PM -18.0270 123.2923 94° East  Level FlightAware Approximate
10:45PM -18.0324 123.3698 94° East  Level FlightAware Approximate
10:46PM -18.0378 123.4474 94° East  Level FlightAware Approximate
10:46PM -18.0348 123.4182 95° East 27,000  Level Aus ATC (Calculated)
10:47PM -18.0431 123.5249 94° East  Level FlightAware Approximate
10:48PM -18.0421 123.5203 94° East  Level FlightAware Approximate
10:49PM -18.0476 123.5978 94° East  Level FlightAware Approximate
10:49PM -18.0492 123.6145 65° Northeast 27,000  Level Aus ATC (Calculated)
10:49PM -18.0488 123.6155 245° Southwest 27,000  Level Aus ATC (Calculated)
10:49PM -18.0492 123.6145 94° East 27,000  Level Aus ATC (Calculated)
10:51PM -18.0552 123.7024 94° East  Level FlightAware Approximate
10:52PM -18.0596 123.7812 95° East  Level Estimated
10:53PM -18.0657 123.8598 95° East  Level FlightAware Approximate
10:53PM -18.0711 123.9219 92° East 27,000  Level Aus ATC (Calculated)
10:54PM -18.0718 123.9384 95° East  Level FlightAware Approximate
10:55PM -18.0772 124.0019 95° East  Level FlightAware Approximate
10:55PM -18.0795 124.0311 95° East 27,000  Level Aus ATC (Calculated)
10:57PM -18.0898 124.1674 95° East  Level FlightAware Approximate
10:57PM -18.0960 124.2494 274° West 27,000  Level Aus ATC (Calculated)
10:58PM -18.0957 124.2461 95° East  Level FlightAware Approximate
10:59PM -18.1020 124.3294 95° East  Level FlightAware Approximate
11:00PM -18.1078 124.4081 94° East  Level FlightAware Approximate
11:01PM -18.1137 124.4867 94° East  Level FlightAware Approximate
11:02PM -18.1195 124.5654 94° East  Level FlightAware Approximate
11:03PM -18.1252 124.6441 94° East  Level FlightAware Approximate
11:04PM -18.1310 124.7228 94° East  Level FlightAware Approximate
11:05PM -18.1367 124.8015 94° East  Level FlightAware Approximate
11:06PM -18.1423 124.8802 94° East  Level FlightAware Approximate
11:07PM -18.1480 124.9589 94° East  Level FlightAware Approximate
11:08PM -18.1536 125.0377 94° East  Level FlightAware Approximate
11:09PM -18.1592 125.1164 94° East  Level FlightAware Approximate
11:10PM -18.1647 125.1951 94° East  Level FlightAware Approximate
11:11PM -18.1702 125.2738 94° East  Level FlightAware Approximate
11:12PM -18.1757 125.3526 94° East  Level FlightAware Approximate
11:13PM -18.1812 125.4313 94° East  Level FlightAware Approximate
11:14PM -18.1866 125.5101 94° East  Level FlightAware Approximate
11:14PM -18.1934 125.6923 272° West 100  Level Aus ATC (Calculated)
11:16PM -18.1923 125.6511 92° East  Level FlightAware Approximate
11:17PM -18.1943 125.7300 92° East  Level FlightAware Approximate
11:18PM -18.1963 125.8089 92° East  Level FlightAware Approximate
11:18PM -18.2016 126.0216 91° East  Level Aus ATC (Calculated)
11:20PM -18.2040 126.1268 91° East  Level FlightAware Approximate
11:21PM -18.2058 126.2058 91° East  Level FlightAware Approximate
11:22PM -18.2076 126.2847 91° East  Level FlightAware Approximate
11:23PM -18.2093 126.3637 91° East  Level FlightAware Approximate
11:24PM -18.2110 126.4426 91° East  Level FlightAware Approximate
11:25PM -18.2126 126.5216 91° East  Level FlightAware Approximate
11:26PM -18.2143 126.6005 91° East  Level FlightAware Approximate
11:27PM -18.2159 126.6795 91° East  Level FlightAware Approximate
11:28PM -18.2174 126.7584 91° East  Level FlightAware Approximate
11:28PM -18.2202 126.8785 91° East  Level Aus ATC (Calculated)
11:29PM -18.2214 126.9444 91° East  Level Aus ATC (Calculated)
11:30PM -18.2220 126.9785 91° East  Level FlightAware Approximate
11:31PM -18.2239 127.0826 91° East  Level FlightAware Approximate
11:32PM -18.2252 127.1616 91° East  Level FlightAware Approximate
11:33PM -18.2265 127.2405 91° East  Level FlightAware Approximate
11:34PM -18.2278 127.3195 91° East  Level FlightAware Approximate
11:35PM -18.2290 127.3984 91° East  Level FlightAware Approximate
11:36PM -18.2303 127.4774 91° East  Level FlightAware Approximate
11:37PM -18.2314 127.5564 91° East  Level FlightAware Approximate
11:37PM -18.2340 127.6696 272° West  Level Aus ATC (Calculated)
11:38PM -18.2326 127.6353 91° East  Level FlightAware Approximate
11:39PM -18.2339 127.6697 73° East  Level Estimated
11:40PM -18.2339 127.6697 73° East  Level Estimated